sensor_id;sensor_type;location;lat;lon;timestamp;P1;durP1;ratioP1;P2;durP2;ratioP2
23990;SDS011;12205;50.600;4.608;2023-08-30T00:01:05;9.85;;;2.20;;
23990;SDS011;12205;50.600;4.608;2023-08-30T00:03:33;7.85;;;1.98;;
23990;SDS011;12205;50.600;4.608;2023-08-30T00:06:03;12.07;;;2.75;;
23990;SDS011;12205;50.600;4.608;2023-08-30T00:08:31;9.68;;;2.33;;
23990;SDS011;12205;50.600;4.608;2023-08-30T00:10:58;10.10;;;2.40;;
23990;SDS011;12205;50.600;4.608;2023-08-30T00:13:25;10.80;;;2.85;;
23990;SDS011;12205;50.600;4.608;2023-08-30T00:15:52;14.23;;;3.10;;
23990;SDS011;12205;50.600;4.608;2023-08-30T00:18:22;9.93;;;2.85;;
23990;SDS011;12205;50.600;4.608;2023-08-30T00:20:49;5.80;;;2.03;;
23990;SDS011;12205;50.600;4.608;2023-08-30T00:23:16;13.43;;;2.88;;
23990;SDS011;12205;50.600;4.608;2023-08-30T00:25:43;13.52;;;2.75;;
23990;SDS011;12205;50.600;4.608;2023-08-30T00:28:10;7.55;;;2.45;;
23990;SDS011;12205;50.600;4.608;2023-08-30T00:30:37;8.77;;;2.35;;
23990;SDS011;12205;50.600;4.608;2023-08-30T00:33:04;8.70;;;2.78;;
23990;SDS011;12205;50.600;4.608;2023-08-30T00:35:32;9.43;;;3.40;;
23990;SDS011;12205;50.600;4.608;2023-08-30T00:37:59;7.28;;;2.83;;
23990;SDS011;12205;50.600;4.608;2023-08-30T00:40:26;9.32;;;2.90;;
23990;SDS011;12205;50.600;4.608;2023-08-30T00:42:54;6.97;;;2.78;;
23990;SDS011;12205;50.600;4.608;2023-08-30T00:45:22;8.52;;;2.92;;
23990;SDS011;12205;50.600;4.608;2023-08-30T00:47:52;7.00;;;2.72;;
23990;SDS011;12205;50.600;4.608;2023-08-30T00:50:20;12.18;;;2.78;;
23990;SDS011;12205;50.600;4.608;2023-08-30T00:52:48;6.93;;;2.42;;
23990;SDS011;12205;50.600;4.608;2023-08-30T00:55:15;8.20;;;2.50;;
23990;SDS011;12205;50.600;4.608;2023-08-30T00:57:42;7.82;;;2.65;;
23990;SDS011;12205;50.600;4.608;2023-08-30T01:00:10;5.95;;;2.35;;
23990;SDS011;12205;50.600;4.608;2023-08-30T01:02:37;6.80;;;2.90;;
23990;SDS011;12205;50.600;4.608;2023-08-30T01:05:05;13.57;;;3.75;;
23990;SDS011;12205;50.600;4.608;2023-08-30T01:07:33;12.02;;;3.60;;
23990;SDS011;12205;50.600;4.608;2023-08-30T01:10:02;9.13;;;2.95;;
23990;SDS011;12205;50.600;4.608;2023-08-30T01:12:31;9.32;;;3.30;;
23990;SDS011;12205;50.600;4.608;2023-08-30T01:15:06;17.95;;;4.75;;
23990;SDS011;12205;50.600;4.608;2023-08-30T01:17:38;8.82;;;3.40;;
23990;SDS011;12205;50.600;4.608;2023-08-30T01:20:09;12.73;;;3.45;;
23990;SDS011;12205;50.600;4.608;2023-08-30T01:22:43;13.05;;;3.60;;
23990;SDS011;12205;50.600;4.608;2023-08-30T01:25:24;7.80;;;3.08;;
23990;SDS011;12205;50.600;4.608;2023-08-30T01:28:00;12.90;;;4.20;;
23990;SDS011;12205;50.600;4.608;2023-08-30T01:30:29;10.75;;;3.90;;
23990;SDS011;12205;50.600;4.608;2023-08-30T01:32:59;9.23;;;3.28;;
23990;SDS011;12205;50.600;4.608;2023-08-30T01:35:28;17.23;;;4.35;;
23990;SDS011;12205;50.600;4.608;2023-08-30T01:37:59;15.73;;;3.85;;
23990;SDS011;12205;50.600;4.608;2023-08-30T01:40:28;12.65;;;4.32;;
23990;SDS011;12205;50.600;4.608;2023-08-30T01:42:57;10.75;;;3.50;;
23990;SDS011;12205;50.600;4.608;2023-08-30T01:45:26;12.85;;;4.03;;
23990;SDS011;12205;50.600;4.608;2023-08-30T01:47:55;11.93;;;3.70;;
23990;SDS011;12205;50.600;4.608;2023-08-30T01:50:23;14.00;;;4.07;;
23990;SDS011;12205;50.600;4.608;2023-08-30T01:52:51;11.10;;;4.05;;
23990;SDS011;12205;50.600;4.608;2023-08-30T01:55:20;9.75;;;3.47;;
23990;SDS011;12205;50.600;4.608;2023-08-30T01:57:48;11.15;;;3.28;;
23990;SDS011;12205;50.600;4.608;2023-08-30T02:00:15;9.13;;;3.70;;
23990;SDS011;12205;50.600;4.608;2023-08-30T02:02:43;10.02;;;3.33;;
23990;SDS011;12205;50.600;4.608;2023-08-30T02:05:10;10.10;;;3.53;;
23990;SDS011;12205;50.600;4.608;2023-08-30T02:07:40;8.77;;;2.83;;
23990;SDS011;12205;50.600;4.608;2023-08-30T02:10:16;13.18;;;3.50;;
23990;SDS011;12205;50.600;4.608;2023-08-30T02:12:49;10.57;;;3.10;;
23990;SDS011;12205;50.600;4.608;2023-08-30T02:15:19;8.27;;;3.08;;
23990;SDS011;12205;50.600;4.608;2023-08-30T02:17:48;11.30;;;3.35;;
23990;SDS011;12205;50.600;4.608;2023-08-30T02:20:16;9.73;;;3.20;;
23990;SDS011;12205;50.600;4.608;2023-08-30T02:22:43;8.95;;;3.25;;
23990;SDS011;12205;50.600;4.608;2023-08-30T02:25:10;12.40;;;4.00;;
23990;SDS011;12205;50.600;4.608;2023-08-30T02:27:37;11.40;;;3.33;;
23990;SDS011;12205;50.600;4.608;2023-08-30T02:30:04;8.82;;;2.95;;
23990;SDS011;12205;50.600;4.608;2023-08-30T02:32:32;9.57;;;2.83;;
23990;SDS011;12205;50.600;4.608;2023-08-30T02:35:01;14.50;;;3.55;;
23990;SDS011;12205;50.600;4.608;2023-08-30T02:37:29;8.38;;;2.80;;
23990;SDS011;12205;50.600;4.608;2023-08-30T02:39:55;10.35;;;3.00;;
23990;SDS011;12205;50.600;4.608;2023-08-30T02:42:22;9.45;;;3.00;;
23990;SDS011;12205;50.600;4.608;2023-08-30T02:44:52;10.32;;;3.13;;
23990;SDS011;12205;50.600;4.608;2023-08-30T02:47:20;9.38;;;3.10;;
23990;SDS011;12205;50.600;4.608;2023-08-30T02:49:46;8.75;;;2.97;;
23990;SDS011;12205;50.600;4.608;2023-08-30T02:52:15;9.38;;;2.65;;
23990;SDS011;12205;50.600;4.608;2023-08-30T02:54:43;9.80;;;2.60;;
23990;SDS011;12205;50.600;4.608;2023-08-30T02:57:09;9.18;;;2.88;;
23990;SDS011;12205;50.600;4.608;2023-08-30T02:59:36;8.68;;;2.85;;
23990;SDS011;12205;50.600;4.608;2023-08-30T03:02:05;9.52;;;2.78;;
23990;SDS011;12205;50.600;4.608;2023-08-30T03:04:31;8.25;;;3.03;;
23990;SDS011;12205;50.600;4.608;2023-08-30T03:06:58;7.90;;;3.00;;
23990;SDS011;12205;50.600;4.608;2023-08-30T03:09:28;9.63;;;3.10;;
23990;SDS011;12205;50.600;4.608;2023-08-30T03:11:55;8.40;;;2.85;;
23990;SDS011;12205;50.600;4.608;2023-08-30T03:14:22;6.45;;;2.42;;
23990;SDS011;12205;50.600;4.608;2023-08-30T03:16:49;11.05;;;3.03;;
23990;SDS011;12205;50.600;4.608;2023-08-30T03:19:16;10.52;;;3.08;;
23990;SDS011;12205;50.600;4.608;2023-08-30T03:21:43;8.70;;;2.55;;
23990;SDS011;12205;50.600;4.608;2023-08-30T03:24:10;7.22;;;2.60;;
23990;SDS011;12205;50.600;4.608;2023-08-30T03:26:42;6.30;;;2.40;;
23990;SDS011;12205;50.600;4.608;2023-08-30T03:29:09;9.73;;;3.00;;
23990;SDS011;12205;50.600;4.608;2023-08-30T03:31:36;12.23;;;2.95;;
23990;SDS011;12205;50.600;4.608;2023-08-30T03:34:04;10.00;;;2.60;;
23990;SDS011;12205;50.600;4.608;2023-08-30T03:36:31;11.05;;;2.88;;
23990;SDS011;12205;50.600;4.608;2023-08-30T03:38:58;8.82;;;2.90;;
23990;SDS011;12205;50.600;4.608;2023-08-30T03:41:26;9.15;;;2.90;;
23990;SDS011;12205;50.600;4.608;2023-08-30T03:43:54;13.15;;;3.03;;
23990;SDS011;12205;50.600;4.608;2023-08-30T03:46:21;12.63;;;3.47;;
23990;SDS011;12205;50.600;4.608;2023-08-30T03:48:48;12.18;;;2.97;;
23990;SDS011;12205;50.600;4.608;2023-08-30T03:51:16;8.55;;;2.72;;
23990;SDS011;12205;50.600;4.608;2023-08-30T03:53:43;9.00;;;2.70;;
23990;SDS011;12205;50.600;4.608;2023-08-30T03:56:10;10.15;;;2.60;;
23990;SDS011;12205;50.600;4.608;2023-08-30T03:58:37;13.15;;;3.20;;
23990;SDS011;12205;50.600;4.608;2023-08-30T04:01:05;12.13;;;3.25;;
23990;SDS011;12205;50.600;4.608;2023-08-30T04:03:33;13.18;;;3.10;;
23990;SDS011;12205;50.600;4.608;2023-08-30T04:06:00;9.02;;;2.97;;
23990;SDS011;12205;50.600;4.608;2023-08-30T04:08:27;9.25;;;2.92;;
23990;SDS011;12205;50.600;4.608;2023-08-30T04:10:54;11.32;;;3.20;;
23990;SDS011;12205;50.600;4.608;2023-08-30T04:13:22;15.38;;;2.92;;
23990;SDS011;12205;50.600;4.608;2023-08-30T04:15:49;10.55;;;2.80;;
23990;SDS011;12205;50.600;4.608;2023-08-30T04:18:18;8.68;;;2.35;;
23990;SDS011;12205;50.600;4.608;2023-08-30T04:20:46;10.18;;;2.53;;
23990;SDS011;12205;50.600;4.608;2023-08-30T04:23:13;12.15;;;3.13;;
23990;SDS011;12205;50.600;4.608;2023-08-30T04:25:40;8.00;;;2.40;;
23990;SDS011;12205;50.600;4.608;2023-08-30T04:28:09;8.73;;;2.50;;
23990;SDS011;12205;50.600;4.608;2023-08-30T04:30:36;13.05;;;3.08;;
23990;SDS011;12205;50.600;4.608;2023-08-30T04:33:04;10.45;;;2.28;;
23990;SDS011;12205;50.600;4.608;2023-08-30T04:35:32;5.80;;;2.10;;
23990;SDS011;12205;50.600;4.608;2023-08-30T04:38:00;7.95;;;2.10;;
23990;SDS011;12205;50.600;4.608;2023-08-30T04:40:28;9.27;;;2.40;;
23990;SDS011;12205;50.600;4.608;2023-08-30T04:42:55;6.55;;;2.25;;
23990;SDS011;12205;50.600;4.608;2023-08-30T04:45:23;6.30;;;1.85;;
23990;SDS011;12205;50.600;4.608;2023-08-30T04:47:50;7.80;;;2.15;;
23990;SDS011;12205;50.600;4.608;2023-08-30T04:50:18;9.60;;;2.13;;
23990;SDS011;12205;50.600;4.608;2023-08-30T04:52:46;10.57;;;2.05;;
23990;SDS011;12205;50.600;4.608;2023-08-30T04:55:13;9.10;;;2.10;;
23990;SDS011;12205;50.600;4.608;2023-08-30T04:57:40;8.43;;;1.70;;
23990;SDS011;12205;50.600;4.608;2023-08-30T05:00:12;8.55;;;1.63;;
23990;SDS011;12205;50.600;4.608;2023-08-30T05:02:40;6.18;;;1.80;;
23990;SDS011;12205;50.600;4.608;2023-08-30T05:05:09;7.47;;;1.95;;
23990;SDS011;12205;50.600;4.608;2023-08-30T05:07:36;4.60;;;1.63;;
23990;SDS011;12205;50.600;4.608;2023-08-30T05:10:05;8.25;;;1.95;;
23990;SDS011;12205;50.600;4.608;2023-08-30T05:12:33;8.18;;;2.00;;
23990;SDS011;12205;50.600;4.608;2023-08-30T05:15:00;5.57;;;1.85;;
23990;SDS011;12205;50.600;4.608;2023-08-30T05:17:29;5.72;;;2.20;;
23990;SDS011;12205;50.600;4.608;2023-08-30T05:19:57;7.93;;;1.88;;
23990;SDS011;12205;50.600;4.608;2023-08-30T05:22:24;4.75;;;1.63;;
23990;SDS011;12205;50.600;4.608;2023-08-30T05:24:51;6.20;;;1.63;;
23990;SDS011;12205;50.600;4.608;2023-08-30T05:27:19;5.03;;;1.67;;
23990;SDS011;12205;50.600;4.608;2023-08-30T05:29:47;5.05;;;1.80;;
23990;SDS011;12205;50.600;4.608;2023-08-30T05:32:15;8.02;;;1.95;;
23990;SDS011;12205;50.600;4.608;2023-08-30T05:35:01;6.18;;;1.90;;
23990;SDS011;12205;50.600;4.608;2023-08-30T05:37:46;6.68;;;1.65;;
23990;SDS011;12205;50.600;4.608;2023-08-30T05:40:37;5.30;;;1.42;;
23990;SDS011;12205;50.600;4.608;2023-08-30T05:43:09;5.17;;;1.60;;
23990;SDS011;12205;50.600;4.608;2023-08-30T05:45:36;5.70;;;1.50;;
23990;SDS011;12205;50.600;4.608;2023-08-30T05:48:03;4.35;;;1.40;;
23990;SDS011;12205;50.600;4.608;2023-08-30T05:50:31;7.97;;;1.63;;
23990;SDS011;12205;50.600;4.608;2023-08-30T05:52:57;5.82;;;1.52;;
23990;SDS011;12205;50.600;4.608;2023-08-30T05:55:24;6.25;;;1.50;;
23990;SDS011;12205;50.600;4.608;2023-08-30T05:57:52;6.65;;;1.77;;
23990;SDS011;12205;50.600;4.608;2023-08-30T06:00:20;8.00;;;1.60;;
23990;SDS011;12205;50.600;4.608;2023-08-30T06:02:48;5.15;;;1.77;;
23990;SDS011;12205;50.600;4.608;2023-08-30T06:05:16;8.93;;;1.77;;
23990;SDS011;12205;50.600;4.608;2023-08-30T06:07:43;5.80;;;1.67;;
23990;SDS011;12205;50.600;4.608;2023-08-30T06:10:10;9.43;;;1.40;;
23990;SDS011;12205;50.600;4.608;2023-08-30T06:12:38;7.60;;;0.93;;
23990;SDS011;12205;50.600;4.608;2023-08-30T06:15:06;3.30;;;1.15;;
23990;SDS011;12205;50.600;4.608;2023-08-30T06:17:34;7.25;;;1.00;;
23990;SDS011;12205;50.600;4.608;2023-08-30T06:20:01;4.35;;;0.82;;
23990;SDS011;12205;50.600;4.608;2023-08-30T06:22:29;4.00;;;1.00;;
23990;SDS011;12205;50.600;4.608;2023-08-30T06:24:56;6.57;;;0.85;;
23990;SDS011;12205;50.600;4.608;2023-08-30T06:27:23;2.88;;;1.08;;
23990;SDS011;12205;50.600;4.608;2023-08-30T06:29:50;5.78;;;1.00;;
23990;SDS011;12205;50.600;4.608;2023-08-30T06:32:17;3.50;;;1.35;;
23990;SDS011;12205;50.600;4.608;2023-08-30T06:34:46;3.83;;;0.95;;
23990;SDS011;12205;50.600;4.608;2023-08-30T06:37:13;2.55;;;0.98;;
23990;SDS011;12205;50.600;4.608;2023-08-30T06:39:40;12.20;;;1.33;;
23990;SDS011;12205;50.600;4.608;2023-08-30T06:42:07;4.25;;;0.90;;
23990;SDS011;12205;50.600;4.608;2023-08-30T06:44:34;3.13;;;1.00;;
23990;SDS011;12205;50.600;4.608;2023-08-30T06:47:00;4.15;;;0.98;;
23990;SDS011;12205;50.600;4.608;2023-08-30T06:49:28;4.57;;;1.00;;
23990;SDS011;12205;50.600;4.608;2023-08-30T06:51:58;2.50;;;0.93;;
23990;SDS011;12205;50.600;4.608;2023-08-30T06:54:26;3.60;;;1.00;;
23990;SDS011;12205;50.600;4.608;2023-08-30T06:56:58;3.08;;;1.10;;
23990;SDS011;12205;50.600;4.608;2023-08-30T06:59:25;5.60;;;0.82;;
23990;SDS011;12205;50.600;4.608;2023-08-30T07:01:52;3.70;;;1.00;;
23990;SDS011;12205;50.600;4.608;2023-08-30T07:04:19;4.43;;;1.10;;
23990;SDS011;12205;50.600;4.608;2023-08-30T07:06:46;8.50;;;1.27;;
23990;SDS011;12205;50.600;4.608;2023-08-30T07:09:14;3.60;;;1.23;;
23990;SDS011;12205;50.600;4.608;2023-08-30T07:11:42;5.10;;;1.70;;
23990;SDS011;12205;50.600;4.608;2023-08-30T07:14:10;5.70;;;1.38;;
23990;SDS011;12205;50.600;4.608;2023-08-30T07:16:37;5.93;;;1.08;;
23990;SDS011;12205;50.600;4.608;2023-08-30T07:19:04;3.28;;;1.10;;
23990;SDS011;12205;50.600;4.608;2023-08-30T07:21:31;15.40;;;3.47;;
23990;SDS011;12205;50.600;4.608;2023-08-30T07:24:02;12.55;;;2.78;;
23990;SDS011;12205;50.600;4.608;2023-08-30T07:26:30;22.85;;;5.03;;
23990;SDS011;12205;50.600;4.608;2023-08-30T07:28:57;22.42;;;5.13;;
23990;SDS011;12205;50.600;4.608;2023-08-30T07:31:24;27.45;;;6.63;;
23990;SDS011;12205;50.600;4.608;2023-08-30T07:33:51;16.45;;;3.30;;
23990;SDS011;12205;50.600;4.608;2023-08-30T07:36:18;14.55;;;3.92;;
23990;SDS011;12205;50.600;4.608;2023-08-30T07:38:45;8.25;;;2.55;;
23990;SDS011;12205;50.600;4.608;2023-08-30T07:41:12;8.27;;;2.40;;
23990;SDS011;12205;50.600;4.608;2023-08-30T07:43:40;14.55;;;3.90;;
23990;SDS011;12205;50.600;4.608;2023-08-30T07:46:07;12.02;;;3.53;;
23990;SDS011;12205;50.600;4.608;2023-08-30T07:48:34;22.42;;;6.22;;
23990;SDS011;12205;50.600;4.608;2023-08-30T07:51:01;13.38;;;4.30;;
23990;SDS011;12205;50.600;4.608;2023-08-30T07:53:28;14.88;;;3.92;;
23990;SDS011;12205;50.600;4.608;2023-08-30T07:55:55;14.82;;;3.72;;
23990;SDS011;12205;50.600;4.608;2023-08-30T07:58:22;8.02;;;2.33;;
23990;SDS011;12205;50.600;4.608;2023-08-30T08:00:51;10.32;;;3.20;;
23990;SDS011;12205;50.600;4.608;2023-08-30T08:03:19;8.65;;;2.75;;
23990;SDS011;12205;50.600;4.608;2023-08-30T08:05:46;9.60;;;2.53;;
23990;SDS011;12205;50.600;4.608;2023-08-30T08:08:13;13.40;;;3.00;;
23990;SDS011;12205;50.600;4.608;2023-08-30T08:10:41;9.57;;;2.60;;
23990;SDS011;12205;50.600;4.608;2023-08-30T08:13:08;10.00;;;2.30;;
23990;SDS011;12205;50.600;4.608;2023-08-30T08:15:35;5.13;;;1.60;;
23990;SDS011;12205;50.600;4.608;2023-08-30T08:18:04;5.45;;;1.70;;
23990;SDS011;12205;50.600;4.608;2023-08-30T08:20:31;7.15;;;1.45;;
23990;SDS011;12205;50.600;4.608;2023-08-30T08:22:59;6.18;;;1.80;;
23990;SDS011;12205;50.600;4.608;2023-08-30T08:25:26;8.77;;;1.92;;
23990;SDS011;12205;50.600;4.608;2023-08-30T08:27:53;6.47;;;1.40;;
23990;SDS011;12205;50.600;4.608;2023-08-30T08:30:19;8.05;;;1.35;;
23990;SDS011;12205;50.600;4.608;2023-08-30T08:32:47;6.65;;;1.60;;
23990;SDS011;12205;50.600;4.608;2023-08-30T08:35:16;4.07;;;1.00;;
23990;SDS011;12205;50.600;4.608;2023-08-30T08:37:43;3.65;;;1.00;;
23990;SDS011;12205;50.600;4.608;2023-08-30T08:40:10;4.25;;;1.05;;
23990;SDS011;12205;50.600;4.608;2023-08-30T08:42:37;3.75;;;1.10;;
23990;SDS011;12205;50.600;4.608;2023-08-30T08:45:04;3.42;;;1.10;;
23990;SDS011;12205;50.600;4.608;2023-08-30T08:47:33;6.38;;;1.30;;
23990;SDS011;12205;50.600;4.608;2023-08-30T08:50:00;3.42;;;0.90;;
23990;SDS011;12205;50.600;4.608;2023-08-30T08:52:30;4.05;;;0.85;;
23990;SDS011;12205;50.600;4.608;2023-08-30T08:54:57;4.32;;;1.02;;
23990;SDS011;12205;50.600;4.608;2023-08-30T08:57:26;10.25;;;1.35;;
23990;SDS011;12205;50.600;4.608;2023-08-30T08:59:55;8.00;;;1.70;;
23990;SDS011;12205;50.600;4.608;2023-08-30T09:02:22;4.38;;;1.33;;
23990;SDS011;12205;50.600;4.608;2023-08-30T09:04:49;2.22;;;1.13;;
23990;SDS011;12205;50.600;4.608;2023-08-30T09:07:18;3.42;;;1.30;;
23990;SDS011;12205;50.600;4.608;2023-08-30T09:09:47;4.75;;;1.15;;
23990;SDS011;12205;50.600;4.608;2023-08-30T09:12:14;3.60;;;0.50;;
23990;SDS011;12205;50.600;4.608;2023-08-30T09:14:41;1.67;;;0.60;;
23990;SDS011;12205;50.600;4.608;2023-08-30T09:17:18;3.20;;;0.90;;
23990;SDS011;12205;50.600;4.608;2023-08-30T09:19:45;20.35;;;6.60;;
23990;SDS011;12205;50.600;4.608;2023-08-30T09:22:12;8.65;;;1.42;;
23990;SDS011;12205;50.600;4.608;2023-08-30T09:24:39;1.25;;;0.43;;
23990;SDS011;12205;50.600;4.608;2023-08-30T09:27:08;2.42;;;0.70;;
23990;SDS011;12205;50.600;4.608;2023-08-30T09:29:35;1.75;;;0.50;;
23990;SDS011;12205;50.600;4.608;2023-08-30T09:32:02;5.38;;;1.40;;
23990;SDS011;12205;50.600;4.608;2023-08-30T09:34:29;2.20;;;0.80;;
23990;SDS011;12205;50.600;4.608;2023-08-30T09:36:56;1.80;;;0.50;;
23990;SDS011;12205;50.600;4.608;2023-08-30T09:39:26;7.03;;;3.42;;
23990;SDS011;12205;50.600;4.608;2023-08-30T09:41:53;3.67;;;0.93;;
23990;SDS011;12205;50.600;4.608;2023-08-30T09:44:22;1.77;;;0.63;;
23990;SDS011;12205;50.600;4.608;2023-08-30T09:46:50;1.23;;;0.40;;
23990;SDS011;12205;50.600;4.608;2023-08-30T09:49:18;1.13;;;0.30;;
23990;SDS011;12205;50.600;4.608;2023-08-30T09:51:46;0.82;;;0.30;;
23990;SDS011;12205;50.600;4.608;2023-08-30T09:54:14;1.50;;;0.25;;
23990;SDS011;12205;50.600;4.608;2023-08-30T09:56:43;1.08;;;0.22;;
23990;SDS011;12205;50.600;4.608;2023-08-30T09:59:11;3.00;;;0.30;;
23990;SDS011;12205;50.600;4.608;2023-08-30T10:01:41;1.33;;;0.20;;
23990;SDS011;12205;50.600;4.608;2023-08-30T10:04:09;1.40;;;0.30;;
23990;SDS011;12205;50.600;4.608;2023-08-30T10:06:36;0.90;;;0.17;;
23990;SDS011;12205;50.600;4.608;2023-08-30T10:09:04;0.70;;;0.20;;
23990;SDS011;12205;50.600;4.608;2023-08-30T10:11:33;1.70;;;0.50;;
23990;SDS011;12205;50.600;4.608;2023-08-30T10:14:02;1.33;;;0.20;;
23990;SDS011;12205;50.600;4.608;2023-08-30T10:16:30;1.35;;;0.30;;
23990;SDS011;12205;50.600;4.608;2023-08-30T10:19:10;1.60;;;0.40;;
23990;SDS011;12205;50.600;4.608;2023-08-30T10:21:40;1.65;;;0.60;;
23990;SDS011;12205;50.600;4.608;2023-08-30T10:24:11;2.38;;;0.60;;
23990;SDS011;12205;50.600;4.608;2023-08-30T10:26:40;2.10;;;0.50;;
23990;SDS011;12205;50.600;4.608;2023-08-30T10:29:09;2.45;;;0.40;;
23990;SDS011;12205;50.600;4.608;2023-08-30T10:31:37;1.45;;;0.40;;
23990;SDS011;12205;50.600;4.608;2023-08-30T10:34:11;2.60;;;0.38;;
23990;SDS011;12205;50.600;4.608;2023-08-30T10:36:42;1.17;;;0.30;;
23990;SDS011;12205;50.600;4.608;2023-08-30T10:39:13;1.58;;;0.50;;
23990;SDS011;12205;50.600;4.608;2023-08-30T10:41:54;0.50;;;0.20;;
23990;SDS011;12205;50.600;4.608;2023-08-30T10:44:22;0.38;;;0.10;;
23990;SDS011;12205;50.600;4.608;2023-08-30T10:46:51;0.63;;;0.20;;
23990;SDS011;12205;50.600;4.608;2023-08-30T10:49:21;1.17;;;0.30;;
23990;SDS011;12205;50.600;4.608;2023-08-30T10:51:55;1.92;;;0.20;;
23990;SDS011;12205;50.600;4.608;2023-08-30T10:54:23;1.67;;;0.40;;
23990;SDS011;12205;50.600;4.608;2023-08-30T10:56:54;0.85;;;0.40;;
23990;SDS011;12205;50.600;4.608;2023-08-30T10:59:24;1.08;;;0.40;;
23990;SDS011;12205;50.600;4.608;2023-08-30T11:01:51;4.75;;;0.40;;
23990;SDS011;12205;50.600;4.608;2023-08-30T11:04:22;1.80;;;0.50;;
23990;SDS011;12205;50.600;4.608;2023-08-30T11:06:49;1.55;;;0.50;;
23990;SDS011;12205;50.600;4.608;2023-08-30T11:09:17;2.15;;;0.75;;
23990;SDS011;12205;50.600;4.608;2023-08-30T11:11:47;2.25;;;0.60;;
23990;SDS011;12205;50.600;4.608;2023-08-30T11:14:15;3.08;;;0.80;;
23990;SDS011;12205;50.600;4.608;2023-08-30T11:16:43;1.92;;;0.80;;
23990;SDS011;12205;50.600;4.608;2023-08-30T11:19:11;3.08;;;0.95;;
23990;SDS011;12205;50.600;4.608;2023-08-30T11:21:42;3.15;;;0.73;;
23990;SDS011;12205;50.600;4.608;2023-08-30T11:24:10;2.80;;;0.93;;
23990;SDS011;12205;50.600;4.608;2023-08-30T11:26:37;2.28;;;0.80;;
23990;SDS011;12205;50.600;4.608;2023-08-30T11:29:05;3.40;;;1.00;;
23990;SDS011;12205;50.600;4.608;2023-08-30T11:31:32;2.33;;;1.02;;
23990;SDS011;12205;50.600;4.608;2023-08-30T11:33:59;2.92;;;1.23;;
23990;SDS011;12205;50.600;4.608;2023-08-30T11:36:28;5.80;;;1.20;;
23990;SDS011;12205;50.600;4.608;2023-08-30T11:38:57;3.05;;;1.00;;
23990;SDS011;12205;50.600;4.608;2023-08-30T11:41:24;2.95;;;1.20;;
23990;SDS011;12205;50.600;4.608;2023-08-30T11:43:53;6.63;;;1.60;;
23990;SDS011;12205;50.600;4.608;2023-08-30T11:46:21;5.18;;;1.50;;
23990;SDS011;12205;50.600;4.608;2023-08-30T11:48:48;5.28;;;1.40;;
23990;SDS011;12205;50.600;4.608;2023-08-30T11:51:17;4.45;;;1.40;;
23990;SDS011;12205;50.600;4.608;2023-08-30T11:53:44;4.43;;;1.83;;
23990;SDS011;12205;50.600;4.608;2023-08-30T11:56:13;5.50;;;1.50;;
23990;SDS011;12205;50.600;4.608;2023-08-30T11:58:42;3.72;;;1.35;;
23990;SDS011;12205;50.600;4.608;2023-08-30T12:01:09;4.53;;;1.40;;
23990;SDS011;12205;50.600;4.608;2023-08-30T12:03:37;6.57;;;1.70;;
23990;SDS011;12205;50.600;4.608;2023-08-30T12:06:08;4.10;;;1.50;;
23990;SDS011;12205;50.600;4.608;2023-08-30T12:08:36;7.95;;;1.63;;
23990;SDS011;12205;50.600;4.608;2023-08-30T12:11:03;6.28;;;1.80;;
23990;SDS011;12205;50.600;4.608;2023-08-30T12:13:32;7.78;;;1.60;;
23990;SDS011;12205;50.600;4.608;2023-08-30T12:16:01;5.90;;;1.60;;
23990;SDS011;12205;50.600;4.608;2023-08-30T12:18:29;5.72;;;2.00;;
23990;SDS011;12205;50.600;4.608;2023-08-30T12:20:58;5.97;;;1.70;;
23990;SDS011;12205;50.600;4.608;2023-08-30T12:23:26;7.53;;;1.70;;
23990;SDS011;12205;50.600;4.608;2023-08-30T12:25:57;8.77;;;2.08;;
23990;SDS011;12205;50.600;4.608;2023-08-30T12:28:29;7.75;;;2.28;;
23990;SDS011;12205;50.600;4.608;2023-08-30T12:30:58;7.38;;;1.77;;
23990;SDS011;12205;50.600;4.608;2023-08-30T12:33:25;10.80;;;1.60;;
23990;SDS011;12205;50.600;4.608;2023-08-30T12:35:53;7.95;;;1.27;;
23990;SDS011;12205;50.600;4.608;2023-08-30T12:38:20;10.77;;;1.10;;
23990;SDS011;12205;50.600;4.608;2023-08-30T12:40:47;5.78;;;0.88;;
23990;SDS011;12205;50.600;4.608;2023-08-30T12:43:15;9.10;;;1.15;;
23990;SDS011;12205;50.600;4.608;2023-08-30T12:45:43;9.45;;;1.05;;
23990;SDS011;12205;50.600;4.608;2023-08-30T12:48:12;9.07;;;1.20;;
23990;SDS011;12205;50.600;4.608;2023-08-30T12:50:41;8.07;;;1.15;;
23990;SDS011;12205;50.600;4.608;2023-08-30T12:53:10;10.35;;;1.38;;
23990;SDS011;12205;50.600;4.608;2023-08-30T12:55:37;6.22;;;1.10;;
23990;SDS011;12205;50.600;4.608;2023-08-30T12:58:05;7.10;;;1.13;;
23990;SDS011;12205;50.600;4.608;2023-08-30T13:00:33;6.07;;;0.95;;
23990;SDS011;12205;50.600;4.608;2023-08-30T13:03:00;8.70;;;1.10;;
23990;SDS011;12205;50.600;4.608;2023-08-30T13:05:30;8.05;;;1.15;;
23990;SDS011;12205;50.600;4.608;2023-08-30T13:07:57;8.50;;;1.08;;
23990;SDS011;12205;50.600;4.608;2023-08-30T13:10:24;6.25;;;0.93;;
23990;SDS011;12205;50.600;4.608;2023-08-30T13:12:51;8.23;;;0.88;;
23990;SDS011;12205;50.600;4.608;2023-08-30T13:15:18;9.20;;;1.13;;
23990;SDS011;12205;50.600;4.608;2023-08-30T13:17:45;12.07;;;0.82;;
23990;SDS011;12205;50.600;4.608;2023-08-30T13:20:12;8.23;;;1.13;;
23990;SDS011;12205;50.600;4.608;2023-08-30T13:22:40;8.48;;;1.05;;
23990;SDS011;12205;50.600;4.608;2023-08-30T13:25:07;6.78;;;0.90;;
23990;SDS011;12205;50.600;4.608;2023-08-30T13:27:35;14.63;;;1.60;;
23990;SDS011;12205;50.600;4.608;2023-08-30T13:30:02;10.52;;;1.05;;
23990;SDS011;12205;50.600;4.608;2023-08-30T13:32:29;7.05;;;1.00;;
23990;SDS011;12205;50.600;4.608;2023-08-30T13:34:57;5.20;;;0.77;;
23990;SDS011;12205;50.600;4.608;2023-08-30T13:37:24;6.40;;;0.90;;
23990;SDS011;12205;50.600;4.608;2023-08-30T13:39:53;6.55;;;0.77;;
23990;SDS011;12205;50.600;4.608;2023-08-30T13:42:20;8.73;;;0.93;;
23990;SDS011;12205;50.600;4.608;2023-08-30T13:44:49;6.03;;;0.77;;
23990;SDS011;12205;50.600;4.608;2023-08-30T13:47:17;7.85;;;0.80;;
23990;SDS011;12205;50.600;4.608;2023-08-30T13:49:45;7.60;;;0.82;;
23990;SDS011;12205;50.600;4.608;2023-08-30T13:52:12;8.48;;;0.93;;
23990;SDS011;12205;50.600;4.608;2023-08-30T13:54:40;7.82;;;0.90;;
23990;SDS011;12205;50.600;4.608;2023-08-30T13:57:08;7.30;;;0.90;;
23990;SDS011;12205;50.600;4.608;2023-08-30T13:59:35;8.25;;;0.85;;
23990;SDS011;12205;50.600;4.608;2023-08-30T14:02:02;9.35;;;0.75;;
23990;SDS011;12205;50.600;4.608;2023-08-30T14:04:30;7.72;;;0.90;;
23990;SDS011;12205;50.600;4.608;2023-08-30T14:06:59;6.80;;;0.75;;
23990;SDS011;12205;50.600;4.608;2023-08-30T14:09:26;6.93;;;0.93;;
23990;SDS011;12205;50.600;4.608;2023-08-30T14:11:53;6.55;;;0.73;;
23990;SDS011;12205;50.600;4.608;2023-08-30T14:14:21;5.75;;;0.73;;
23990;SDS011;12205;50.600;4.608;2023-08-30T14:16:49;7.32;;;0.95;;
23990;SDS011;12205;50.600;4.608;2023-08-30T14:19:16;7.78;;;0.70;;
23990;SDS011;12205;50.600;4.608;2023-08-30T14:21:43;4.60;;;0.57;;
23990;SDS011;12205;50.600;4.608;2023-08-30T14:24:10;6.45;;;0.50;;
23990;SDS011;12205;50.600;4.608;2023-08-30T14:26:37;6.60;;;0.60;;
23990;SDS011;12205;50.600;4.608;2023-08-30T14:29:04;8.52;;;0.60;;
23990;SDS011;12205;50.600;4.608;2023-08-30T14:31:32;5.07;;;0.55;;
23990;SDS011;12205;50.600;4.608;2023-08-30T14:33:59;6.72;;;0.50;;
23990;SDS011;12205;50.600;4.608;2023-08-30T14:36:26;7.18;;;0.63;;
23990;SDS011;12205;50.600;4.608;2023-08-30T14:38:53;3.17;;;0.40;;
23990;SDS011;12205;50.600;4.608;2023-08-30T14:41:20;5.85;;;0.60;;
23990;SDS011;12205;50.600;4.608;2023-08-30T14:43:47;3.95;;;0.40;;
23990;SDS011;12205;50.600;4.608;2023-08-30T14:46:14;5.38;;;0.60;;
23990;SDS011;12205;50.600;4.608;2023-08-30T14:48:44;3.55;;;0.52;;
23990;SDS011;12205;50.600;4.608;2023-08-30T14:51:11;2.33;;;0.45;;